Portland, North Dakota
Current Conditions -  °F | °C
As of 11:53 PM on Friday 19 Dec 2014 (Local Time) from KGFK Reporting Station
Haze Haze  
Wind Chill: -5°   Ceiling: 1100
Heat Index: -2°   Visibility: 6mi
Dew Point: -2°   Wind: 6mph
Humidity: 96%   Direction: 190°S
Pressure: 30"   Gusts: NA
Location:  47.5°N, 97.37°W
Report Text: KGFK 200553Z AUTO 19005KT 6SM BR OVC011 M02/M02 A3000 RMK AO2 SLP172 T10171022 11011 21017 410111067 53002 TSNO $
Loading
Personal Weather Stations






























Interactive Weather Map New forecast layout! Learn more

10-Day Weather Forecast

Advertisements
Track Severe Weather on mobile